sensor_id;sensor_type;location;lat;lon;timestamp;P1;durP1;ratioP1;P2;durP2;ratioP2
68479;SDS011;55469;48.934;12.050;2022-12-18T00:01:51;31.48;;;12.18;;
68479;SDS011;55469;48.934;12.050;2022-12-18T00:04:21;30.05;;;11.52;;
68479;SDS011;55469;48.934;12.050;2022-12-18T00:06:49;29.63;;;11.98;;
68479;SDS011;55469;48.934;12.050;2022-12-18T00:09:15;30.20;;;11.95;;
68479;SDS011;55469;48.934;12.050;2022-12-18T00:11:41;27.40;;;11.80;;
68479;SDS011;55469;48.934;12.050;2022-12-18T00:14:08;31.30;;;11.98;;
68479;SDS011;55469;48.934;12.050;2022-12-18T00:16:36;34.03;;;12.68;;
68479;SDS011;55469;48.934;12.050;2022-12-18T00:19:02;29.27;;;11.48;;
68479;SDS011;55469;48.934;12.050;2022-12-18T00:21:30;31.65;;;12.27;;
68479;SDS011;55469;48.934;12.050;2022-12-18T00:23:57;30.67;;;12.07;;
68479;SDS011;55469;48.934;12.050;2022-12-18T00:26:33;28.98;;;12.02;;
68479;SDS011;55469;48.934;12.050;2022-12-18T00:29:02;31.65;;;11.32;;
68479;SDS011;55469;48.934;12.050;2022-12-18T00:31:32;24.77;;;10.60;;
68479;SDS011;55469;48.934;12.050;2022-12-18T00:33:58;29.65;;;11.35;;
68479;SDS011;55469;48.934;12.050;2022-12-18T00:36:28;29.35;;;11.60;;
68479;SDS011;55469;48.934;12.050;2022-12-18T00:39:00;30.45;;;11.68;;
68479;SDS011;55469;48.934;12.050;2022-12-18T00:41:28;30.13;;;12.77;;
68479;SDS011;55469;48.934;12.050;2022-12-18T00:44:13;29.63;;;12.43;;
68479;SDS011;55469;48.934;12.050;2022-12-18T00:46:42;29.67;;;11.65;;
68479;SDS011;55469;48.934;12.050;2022-12-18T00:49:09;26.50;;;10.82;;
68479;SDS011;55469;48.934;12.050;2022-12-18T00:51:35;26.63;;;11.02;;
68479;SDS011;55469;48.934;12.050;2022-12-18T00:54:01;28.15;;;11.70;;
68479;SDS011;55469;48.934;12.050;2022-12-18T00:56:27;26.02;;;10.65;;
68479;SDS011;55469;48.934;12.050;2022-12-18T00:58:52;29.13;;;11.27;;
68479;SDS011;55469;48.934;12.050;2022-12-18T01:01:18;26.05;;;10.43;;
68479;SDS011;55469;48.934;12.050;2022-12-18T01:03:44;29.85;;;11.25;;
68479;SDS011;55469;48.934;12.050;2022-12-18T01:06:12;29.50;;;11.15;;
68479;SDS011;55469;48.934;12.050;2022-12-18T01:08:39;28.80;;;11.23;;
68479;SDS011;55469;48.934;12.050;2022-12-18T01:11:16;28.00;;;10.98;;
68479;SDS011;55469;48.934;12.050;2022-12-18T01:13:44;32.50;;;11.93;;
68479;SDS011;55469;48.934;12.050;2022-12-18T01:16:13;29.33;;;10.77;;
68479;SDS011;55469;48.934;12.050;2022-12-18T01:18:41;27.92;;;10.65;;
68479;SDS011;55469;48.934;12.050;2022-12-18T01:21:11;26.35;;;10.98;;
68479;SDS011;55469;48.934;12.050;2022-12-18T01:23:40;28.13;;;10.85;;
68479;SDS011;55469;48.934;12.050;2022-12-18T01:26:11;27.95;;;11.30;;
68479;SDS011;55469;48.934;12.050;2022-12-18T01:28:39;28.13;;;10.48;;
68479;SDS011;55469;48.934;12.050;2022-12-18T01:31:25;28.60;;;10.88;;
68479;SDS011;55469;48.934;12.050;2022-12-18T01:33:54;25.08;;;10.95;;
68479;SDS011;55469;48.934;12.050;2022-12-18T01:36:25;28.63;;;10.73;;
68479;SDS011;55469;48.934;12.050;2022-12-18T01:38:53;27.20;;;9.88;;
68479;SDS011;55469;48.934;12.050;2022-12-18T01:41:21;25.95;;;10.27;;
68479;SDS011;55469;48.934;12.050;2022-12-18T01:46:23;28.15;;;10.80;;
68479;SDS011;55469;48.934;12.050;2022-12-18T01:48:53;23.90;;;9.88;;
68479;SDS011;55469;48.934;12.050;2022-12-18T01:51:22;27.25;;;10.95;;
68479;SDS011;55469;48.934;12.050;2022-12-18T01:53:48;28.92;;;10.38;;
68479;SDS011;55469;48.934;12.050;2022-12-18T01:56:15;28.95;;;11.38;;
68479;SDS011;55469;48.934;12.050;2022-12-18T01:59:03;25.88;;;10.65;;
68479;SDS011;55469;48.934;12.050;2022-12-18T02:01:33;27.98;;;10.50;;
68479;SDS011;55469;48.934;12.050;2022-12-18T02:07:37;22.58;;;9.73;;
68479;SDS011;55469;48.934;12.050;2022-12-18T02:10:29;25.23;;;9.05;;
68479;SDS011;55469;48.934;12.050;2022-12-18T02:16:17;25.00;;;10.25;;
68479;SDS011;55469;48.934;12.050;2022-12-18T02:18:50;27.15;;;10.20;;
68479;SDS011;55469;48.934;12.050;2022-12-18T02:21:43;26.08;;;10.32;;
68479;SDS011;55469;48.934;12.050;2022-12-18T02:24:35;26.10;;;10.07;;
68479;SDS011;55469;48.934;12.050;2022-12-18T02:27:44;24.45;;;9.40;;
68479;SDS011;55469;48.934;12.050;2022-12-18T02:30:11;23.77;;;9.40;;
68479;SDS011;55469;48.934;12.050;2022-12-18T02:32:39;25.27;;;9.80;;
68479;SDS011;55469;48.934;12.050;2022-12-18T02:35:14;22.05;;;9.00;;
68479;SDS011;55469;48.934;12.050;2022-12-18T02:37:50;24.00;;;9.85;;
68479;SDS011;55469;48.934;12.050;2022-12-18T02:40:19;25.48;;;10.05;;
68479;SDS011;55469;48.934;12.050;2022-12-18T02:42:48;25.35;;;9.25;;
68479;SDS011;55469;48.934;12.050;2022-12-18T02:45:14;24.70;;;9.75;;
68479;SDS011;55469;48.934;12.050;2022-12-18T02:47:42;23.25;;;9.82;;
68479;SDS011;55469;48.934;12.050;2022-12-18T03:01:33;23.25;;;9.10;;
68479;SDS011;55469;48.934;12.050;2022-12-18T03:06:59;24.40;;;9.05;;
68479;SDS011;55469;48.934;12.050;2022-12-18T03:09:35;25.55;;;9.32;;
68479;SDS011;55469;48.934;12.050;2022-12-18T03:12:19;24.70;;;9.32;;
68479;SDS011;55469;48.934;12.050;2022-12-18T03:15:26;23.50;;;9.30;;
68479;SDS011;55469;48.934;12.050;2022-12-18T03:17:58;22.50;;;9.02;;
68479;SDS011;55469;48.934;12.050;2022-12-18T03:20:31;21.63;;;8.32;;
68479;SDS011;55469;48.934;12.050;2022-12-18T03:23:00;23.00;;;9.32;;
68479;SDS011;55469;48.934;12.050;2022-12-18T03:25:33;25.08;;;9.63;;
68479;SDS011;55469;48.934;12.050;2022-12-18T03:28:02;23.27;;;9.05;;
68479;SDS011;55469;48.934;12.050;2022-12-18T03:30:31;20.75;;;8.45;;
68479;SDS011;55469;48.934;12.050;2022-12-18T03:33:05;24.08;;;9.05;;
68479;SDS011;55469;48.934;12.050;2022-12-18T03:35:38;22.45;;;8.25;;
68479;SDS011;55469;48.934;12.050;2022-12-18T03:38:07;24.92;;;9.43;;
68479;SDS011;55469;48.934;12.050;2022-12-18T03:40:45;21.45;;;8.32;;
68479;SDS011;55469;48.934;12.050;2022-12-18T03:43:35;24.92;;;9.20;;
68479;SDS011;55469;48.934;12.050;2022-12-18T03:46:15;22.85;;;9.38;;
68479;SDS011;55469;48.934;12.050;2022-12-18T03:48:48;22.67;;;8.43;;
68479;SDS011;55469;48.934;12.050;2022-12-18T03:51:43;21.05;;;8.50;;
68479;SDS011;55469;48.934;12.050;2022-12-18T03:54:27;20.55;;;8.70;;
68479;SDS011;55469;48.934;12.050;2022-12-18T03:56:59;22.55;;;8.50;;
68479;SDS011;55469;48.934;12.050;2022-12-18T03:59:32;18.80;;;8.00;;
68479;SDS011;55469;48.934;12.050;2022-12-18T04:01:59;21.50;;;8.35;;
68479;SDS011;55469;48.934;12.050;2022-12-18T04:04:27;22.67;;;8.98;;
68479;SDS011;55469;48.934;12.050;2022-12-18T04:06:54;23.63;;;8.70;;
68479;SDS011;55469;48.934;12.050;2022-12-18T04:09:20;23.08;;;8.45;;
68479;SDS011;55469;48.934;12.050;2022-12-18T04:11:47;19.52;;;8.15;;
68479;SDS011;55469;48.934;12.050;2022-12-18T04:14:14;19.70;;;8.10;;
68479;SDS011;55469;48.934;12.050;2022-12-18T04:16:39;23.05;;;9.82;;
68479;SDS011;55469;48.934;12.050;2022-12-18T04:19:05;25.60;;;9.20;;
68479;SDS011;55469;48.934;12.050;2022-12-18T04:21:31;21.38;;;8.57;;
68479;SDS011;55469;48.934;12.050;2022-12-18T04:23:57;23.38;;;8.95;;
68479;SDS011;55469;48.934;12.050;2022-12-18T04:26:22;22.20;;;8.68;;
68479;SDS011;55469;48.934;12.050;2022-12-18T04:28:48;23.08;;;8.65;;
68479;SDS011;55469;48.934;12.050;2022-12-18T04:31:14;22.50;;;8.60;;
68479;SDS011;55469;48.934;12.050;2022-12-18T04:33:40;21.00;;;8.45;;
68479;SDS011;55469;48.934;12.050;2022-12-18T04:36:05;20.85;;;8.20;;
68479;SDS011;55469;48.934;12.050;2022-12-18T04:38:31;21.65;;;8.48;;
68479;SDS011;55469;48.934;12.050;2022-12-18T04:40:57;19.80;;;8.25;;
68479;SDS011;55469;48.934;12.050;2022-12-18T04:43:26;19.77;;;8.45;;
68479;SDS011;55469;48.934;12.050;2022-12-18T04:45:52;20.45;;;7.75;;
68479;SDS011;55469;48.934;12.050;2022-12-18T04:48:18;22.55;;;8.35;;
68479;SDS011;55469;48.934;12.050;2022-12-18T04:50:46;21.38;;;7.95;;
68479;SDS011;55469;48.934;12.050;2022-12-18T04:53:12;20.13;;;7.97;;
68479;SDS011;55469;48.934;12.050;2022-12-18T04:55:38;22.90;;;8.98;;
68479;SDS011;55469;48.934;12.050;2022-12-18T04:58:04;22.42;;;8.60;;
68479;SDS011;55469;48.934;12.050;2022-12-18T05:00:29;18.58;;;7.50;;
68479;SDS011;55469;48.934;12.050;2022-12-18T05:02:55;21.30;;;8.90;;
68479;SDS011;55469;48.934;12.050;2022-12-18T05:05:21;19.63;;;7.95;;
68479;SDS011;55469;48.934;12.050;2022-12-18T05:07:47;26.70;;;9.18;;
68479;SDS011;55469;48.934;12.050;2022-12-18T05:10:12;18.90;;;7.78;;
68479;SDS011;55469;48.934;12.050;2022-12-18T05:12:38;20.95;;;8.05;;
68479;SDS011;55469;48.934;12.050;2022-12-18T05:15:22;19.95;;;7.65;;
68479;SDS011;55469;48.934;12.050;2022-12-18T05:17:51;21.17;;;8.32;;
68479;SDS011;55469;48.934;12.050;2022-12-18T05:20:17;21.40;;;7.97;;
68479;SDS011;55469;48.934;12.050;2022-12-18T05:22:43;21.33;;;8.05;;
68479;SDS011;55469;48.934;12.050;2022-12-18T05:25:09;21.15;;;7.65;;
68479;SDS011;55469;48.934;12.050;2022-12-18T05:27:35;26.67;;;8.75;;
68479;SDS011;55469;48.934;12.050;2022-12-18T05:30:00;19.40;;;7.95;;
68479;SDS011;55469;48.934;12.050;2022-12-18T05:32:26;19.35;;;7.63;;
68479;SDS011;55469;48.934;12.050;2022-12-18T05:34:52;22.02;;;8.60;;
68479;SDS011;55469;48.934;12.050;2022-12-18T05:37:17;20.83;;;8.02;;
68479;SDS011;55469;48.934;12.050;2022-12-18T05:39:43;19.50;;;8.00;;
68479;SDS011;55469;48.934;12.050;2022-12-18T05:42:09;22.58;;;7.90;;
68479;SDS011;55469;48.934;12.050;2022-12-18T05:44:35;19.77;;;8.25;;
68479;SDS011;55469;48.934;12.050;2022-12-18T05:47:00;18.50;;;7.03;;
68479;SDS011;55469;48.934;12.050;2022-12-18T05:49:26;20.02;;;8.07;;
68479;SDS011;55469;48.934;12.050;2022-12-18T05:51:52;20.40;;;7.72;;
68479;SDS011;55469;48.934;12.050;2022-12-18T05:54:18;21.88;;;7.93;;
68479;SDS011;55469;48.934;12.050;2022-12-18T05:56:44;20.92;;;8.40;;
68479;SDS011;55469;48.934;12.050;2022-12-18T05:59:10;18.50;;;7.65;;
68479;SDS011;55469;48.934;12.050;2022-12-18T06:01:35;21.70;;;8.25;;
68479;SDS011;55469;48.934;12.050;2022-12-18T06:04:01;21.58;;;7.85;;
68479;SDS011;55469;48.934;12.050;2022-12-18T06:06:27;19.77;;;7.57;;
68479;SDS011;55469;48.934;12.050;2022-12-18T06:08:54;24.13;;;8.27;;
68479;SDS011;55469;48.934;12.050;2022-12-18T06:11:22;22.98;;;8.18;;
68479;SDS011;55469;48.934;12.050;2022-12-18T06:13:50;21.92;;;8.50;;
68479;SDS011;55469;48.934;12.050;2022-12-18T06:16:20;22.08;;;8.07;;
68479;SDS011;55469;48.934;12.050;2022-12-18T06:18:45;21.08;;;8.43;;
68479;SDS011;55469;48.934;12.050;2022-12-18T06:21:12;19.08;;;7.15;;
68479;SDS011;55469;48.934;12.050;2022-12-18T06:23:37;19.27;;;7.80;;
68479;SDS011;55469;48.934;12.050;2022-12-18T06:26:04;22.27;;;8.85;;
68479;SDS011;55469;48.934;12.050;2022-12-18T06:28:36;20.15;;;8.30;;
68479;SDS011;55469;48.934;12.050;2022-12-18T06:31:03;19.80;;;8.13;;
68479;SDS011;55469;48.934;12.050;2022-12-18T06:33:30;23.60;;;8.70;;
68479;SDS011;55469;48.934;12.050;2022-12-18T06:36:03;20.90;;;7.78;;
68479;SDS011;55469;48.934;12.050;2022-12-18T06:38:35;24.05;;;8.30;;
68479;SDS011;55469;48.934;12.050;2022-12-18T06:41:07;19.17;;;7.45;;
68479;SDS011;55469;48.934;12.050;2022-12-18T06:43:38;20.10;;;7.95;;
68479;SDS011;55469;48.934;12.050;2022-12-18T06:46:04;22.02;;;8.38;;
68479;SDS011;55469;48.934;12.050;2022-12-18T06:48:30;20.58;;;7.50;;
68479;SDS011;55469;48.934;12.050;2022-12-18T06:50:57;20.63;;;8.18;;
68479;SDS011;55469;48.934;12.050;2022-12-18T06:53:23;25.15;;;8.32;;
68479;SDS011;55469;48.934;12.050;2022-12-18T06:55:49;21.67;;;7.97;;
68479;SDS011;55469;48.934;12.050;2022-12-18T06:58:15;21.42;;;7.72;;
68479;SDS011;55469;48.934;12.050;2022-12-18T07:00:41;21.00;;;7.25;;
68479;SDS011;55469;48.934;12.050;2022-12-18T07:03:06;20.70;;;7.85;;
68479;SDS011;55469;48.934;12.050;2022-12-18T07:05:32;23.80;;;8.85;;
68479;SDS011;55469;48.934;12.050;2022-12-18T07:07:58;19.08;;;7.80;;
68479;SDS011;55469;48.934;12.050;2022-12-18T07:10:24;20.58;;;7.75;;
68479;SDS011;55469;48.934;12.050;2022-12-18T07:12:50;21.40;;;8.05;;
68479;SDS011;55469;48.934;12.050;2022-12-18T07:15:16;19.70;;;7.93;;
68479;SDS011;55469;48.934;12.050;2022-12-18T07:17:42;19.88;;;8.20;;
68479;SDS011;55469;48.934;12.050;2022-12-18T07:20:07;18.48;;;7.75;;
68479;SDS011;55469;48.934;12.050;2022-12-18T07:22:34;21.23;;;8.00;;
68479;SDS011;55469;48.934;12.050;2022-12-18T07:25:00;18.73;;;7.60;;
68479;SDS011;55469;48.934;12.050;2022-12-18T07:27:25;20.45;;;7.68;;
68479;SDS011;55469;48.934;12.050;2022-12-18T07:29:51;23.70;;;8.90;;
68479;SDS011;55469;48.934;12.050;2022-12-18T07:32:17;23.20;;;8.73;;
68479;SDS011;55469;48.934;12.050;2022-12-18T07:34:43;25.90;;;8.50;;
68479;SDS011;55469;48.934;12.050;2022-12-18T07:37:08;22.13;;;8.20;;
68479;SDS011;55469;48.934;12.050;2022-12-18T07:39:34;23.23;;;8.23;;
68479;SDS011;55469;48.934;12.050;2022-12-18T07:42:00;21.83;;;8.48;;
68479;SDS011;55469;48.934;12.050;2022-12-18T07:44:44;22.65;;;7.78;;
68479;SDS011;55469;48.934;12.050;2022-12-18T07:47:10;20.70;;;8.18;;
68479;SDS011;55469;48.934;12.050;2022-12-18T07:49:36;21.77;;;8.55;;
68479;SDS011;55469;48.934;12.050;2022-12-18T07:52:01;23.30;;;7.63;;
68479;SDS011;55469;48.934;12.050;2022-12-18T07:54:27;22.55;;;8.32;;
68479;SDS011;55469;48.934;12.050;2022-12-18T07:56:53;21.63;;;8.18;;
68479;SDS011;55469;48.934;12.050;2022-12-18T07:59:18;18.92;;;7.78;;
68479;SDS011;55469;48.934;12.050;2022-12-18T08:01:44;19.90;;;8.32;;
68479;SDS011;55469;48.934;12.050;2022-12-18T08:04:10;19.45;;;7.90;;
68479;SDS011;55469;48.934;12.050;2022-12-18T08:06:36;22.00;;;8.15;;
68479;SDS011;55469;48.934;12.050;2022-12-18T08:09:02;23.13;;;8.13;;
68479;SDS011;55469;48.934;12.050;2022-12-18T08:11:28;21.45;;;8.65;;
68479;SDS011;55469;48.934;12.050;2022-12-18T08:13:54;20.90;;;8.90;;
68479;SDS011;55469;48.934;12.050;2022-12-18T08:16:21;20.80;;;8.30;;
68479;SDS011;55469;48.934;12.050;2022-12-18T08:18:48;22.00;;;8.77;;
68479;SDS011;55469;48.934;12.050;2022-12-18T08:21:15;23.20;;;8.45;;
68479;SDS011;55469;48.934;12.050;2022-12-18T08:23:43;23.35;;;8.27;;
68479;SDS011;55469;48.934;12.050;2022-12-18T08:26:10;22.65;;;8.60;;
68479;SDS011;55469;48.934;12.050;2022-12-18T08:28:36;20.98;;;8.27;;
68479;SDS011;55469;48.934;12.050;2022-12-18T08:31:03;23.50;;;8.98;;
68479;SDS011;55469;48.934;12.050;2022-12-18T08:33:28;22.88;;;8.45;;
68479;SDS011;55469;48.934;12.050;2022-12-18T08:35:54;20.50;;;8.00;;
68479;SDS011;55469;48.934;12.050;2022-12-18T08:38:20;20.85;;;8.32;;
68479;SDS011;55469;48.934;12.050;2022-12-18T08:40:46;23.80;;;8.48;;
68479;SDS011;55469;48.934;12.050;2022-12-18T08:43:11;22.40;;;8.02;;
68479;SDS011;55469;48.934;12.050;2022-12-18T08:45:56;21.30;;;8.02;;
68479;SDS011;55469;48.934;12.050;2022-12-18T08:48:22;24.02;;;8.82;;
68479;SDS011;55469;48.934;12.050;2022-12-18T08:50:56;23.33;;;8.73;;
68479;SDS011;55469;48.934;12.050;2022-12-18T08:53:23;20.02;;;7.82;;
68479;SDS011;55469;48.934;12.050;2022-12-18T08:55:49;21.85;;;7.47;;
68479;SDS011;55469;48.934;12.050;2022-12-18T08:58:14;22.70;;;8.20;;
68479;SDS011;55469;48.934;12.050;2022-12-18T09:00:40;21.00;;;7.70;;
68479;SDS011;55469;48.934;12.050;2022-12-18T09:03:10;26.60;;;9.35;;
68479;SDS011;55469;48.934;12.050;2022-12-18T09:05:40;20.85;;;8.18;;
68479;SDS011;55469;48.934;12.050;2022-12-18T09:08:06;20.02;;;8.32;;
68479;SDS011;55469;48.934;12.050;2022-12-18T09:10:32;23.33;;;8.98;;
68479;SDS011;55469;48.934;12.050;2022-12-18T09:12:58;22.42;;;7.82;;
68479;SDS011;55469;48.934;12.050;2022-12-18T09:15:24;21.30;;;8.20;;
68479;SDS011;55469;48.934;12.050;2022-12-18T09:17:50;20.42;;;8.07;;
68479;SDS011;55469;48.934;12.050;2022-12-18T09:20:17;20.08;;;8.13;;
68479;SDS011;55469;48.934;12.050;2022-12-18T09:22:44;21.77;;;8.43;;
68479;SDS011;55469;48.934;12.050;2022-12-18T09:25:10;24.83;;;8.63;;
68479;SDS011;55469;48.934;12.050;2022-12-18T09:27:35;26.77;;;9.38;;
68479;SDS011;55469;48.934;12.050;2022-12-18T09:30:01;19.35;;;7.93;;
68479;SDS011;55469;48.934;12.050;2022-12-18T09:32:29;20.50;;;8.45;;
68479;SDS011;55469;48.934;12.050;2022-12-18T09:34:54;23.70;;;8.80;;
68479;SDS011;55469;48.934;12.050;2022-12-18T09:37:20;21.80;;;9.02;;
68479;SDS011;55469;48.934;12.050;2022-12-18T09:39:46;22.35;;;8.52;;
68479;SDS011;55469;48.934;12.050;2022-12-18T09:42:19;22.40;;;8.43;;
68479;SDS011;55469;48.934;12.050;2022-12-18T09:44:51;19.55;;;8.23;;
68479;SDS011;55469;48.934;12.050;2022-12-18T09:47:23;21.65;;;8.18;;
68479;SDS011;55469;48.934;12.050;2022-12-18T09:50:00;23.05;;;8.23;;
68479;SDS011;55469;48.934;12.050;2022-12-18T09:52:33;21.33;;;9.10;;
68479;SDS011;55469;48.934;12.050;2022-12-18T09:57:54;20.35;;;7.93;;
68479;SDS011;55469;48.934;12.050;2022-12-18T10:00:45;25.23;;;8.50;;
68479;SDS011;55469;48.934;12.050;2022-12-18T10:03:12;23.83;;;8.88;;
68479;SDS011;55469;48.934;12.050;2022-12-18T10:08:30;21.05;;;8.43;;
68479;SDS011;55469;48.934;12.050;2022-12-18T10:11:28;19.25;;;8.00;;
68479;SDS011;55469;48.934;12.050;2022-12-18T10:19:38;22.08;;;8.70;;
68479;SDS011;55469;48.934;12.050;2022-12-18T10:27:35;23.05;;;8.77;;
68479;SDS011;55469;48.934;12.050;2022-12-18T10:30:04;22.75;;;8.00;;
68479;SDS011;55469;48.934;12.050;2022-12-18T10:32:39;23.65;;;8.50;;
68479;SDS011;55469;48.934;12.050;2022-12-18T10:35:04;20.30;;;7.68;;
68479;SDS011;55469;48.934;12.050;2022-12-18T10:38:05;20.75;;;8.55;;
68479;SDS011;55469;48.934;12.050;2022-12-18T10:40:56;21.83;;;8.75;;
68479;SDS011;55469;48.934;12.050;2022-12-18T10:43:30;20.30;;;8.32;;
68479;SDS011;55469;48.934;12.050;2022-12-18T10:48:33;20.67;;;8.57;;
68479;SDS011;55469;48.934;12.050;2022-12-18T10:51:19;19.85;;;7.63;;
68479;SDS011;55469;48.934;12.050;2022-12-18T10:54:02;18.65;;;8.18;;
68479;SDS011;55469;48.934;12.050;2022-12-18T10:56:33;21.02;;;8.45;;
68479;SDS011;55469;48.934;12.050;2022-12-18T10:59:04;21.77;;;8.77;;
68479;SDS011;55469;48.934;12.050;2022-12-18T11:04:25;21.50;;;8.73;;
68479;SDS011;55469;48.934;12.050;2022-12-18T11:07:15;22.45;;;9.13;;
68479;SDS011;55469;48.934;12.050;2022-12-18T11:09:41;18.10;;;7.68;;
68479;SDS011;55469;48.934;12.050;2022-12-18T11:14:49;24.15;;;8.82;;
68479;SDS011;55469;48.934;12.050;2022-12-18T11:17:30;19.25;;;8.70;;
68479;SDS011;55469;48.934;12.050;2022-12-18T11:20:06;20.05;;;8.18;;
68479;SDS011;55469;48.934;12.050;2022-12-18T11:22:58;22.45;;;8.40;;
68479;SDS011;55469;48.934;12.050;2022-12-18T11:25:29;22.42;;;8.95;;
68479;SDS011;55469;48.934;12.050;2022-12-18T11:27:58;20.42;;;8.48;;
68479;SDS011;55469;48.934;12.050;2022-12-18T11:30:31;22.17;;;9.05;;
68479;SDS011;55469;48.934;12.050;2022-12-18T11:33:04;19.80;;;8.15;;
68479;SDS011;55469;48.934;12.050;2022-12-18T11:38:17;25.02;;;9.38;;
68479;SDS011;55469;48.934;12.050;2022-12-18T11:44:21;21.85;;;8.43;;
68479;SDS011;55469;48.934;12.050;2022-12-18T11:47:03;22.08;;;8.95;;
68479;SDS011;55469;48.934;12.050;2022-12-18T11:50:01;22.08;;;9.02;;
68479;SDS011;55469;48.934;12.050;2022-12-18T11:52:39;23.15;;;9.70;;
68479;SDS011;55469;48.934;12.050;2022-12-18T11:55:25;24.88;;;9.77;;
68479;SDS011;55469;48.934;12.050;2022-12-18T12:07:09;25.90;;;9.48;;
68479;SDS011;55469;48.934;12.050;2022-12-18T12:12:51;20.98;;;8.48;;
68479;SDS011;55469;48.934;12.050;2022-12-18T12:15:47;19.58;;;8.13;;
68479;SDS011;55469;48.934;12.050;2022-12-18T12:21:23;22.55;;;8.88;;
68479;SDS011;55469;48.934;12.050;2022-12-18T12:27:05;21.17;;;8.23;;
68479;SDS011;55469;48.934;12.050;2022-12-18T12:35:04;19.95;;;7.68;;
68479;SDS011;55469;48.934;12.050;2022-12-18T12:40:33;22.35;;;8.85;;
68479;SDS011;55469;48.934;12.050;2022-12-18T12:46:09;20.80;;;8.60;;
68479;SDS011;55469;48.934;12.050;2022-12-18T12:48:45;22.80;;;9.00;;
68479;SDS011;55469;48.934;12.050;2022-12-18T12:51:21;21.60;;;8.93;;
68479;SDS011;55469;48.934;12.050;2022-12-18T12:53:58;24.27;;;9.07;;
68479;SDS011;55469;48.934;12.050;2022-12-18T12:56:37;18.63;;;8.20;;
68479;SDS011;55469;48.934;12.050;2022-12-18T12:59:22;24.13;;;8.93;;
68479;SDS011;55469;48.934;12.050;2022-12-18T13:02:22;21.38;;;8.90;;
68479;SDS011;55469;48.934;12.050;2022-12-18T13:07:32;20.23;;;8.25;;
68479;SDS011;55469;48.934;12.050;2022-12-18T13:20:35;22.70;;;8.93;;
68479;SDS011;55469;48.934;12.050;2022-12-18T13:23:35;17.65;;;8.25;;
68479;SDS011;55469;48.934;12.050;2022-12-18T13:31:12;19.15;;;8.45;;
68479;SDS011;55469;48.934;12.050;2022-12-18T13:33:41;21.27;;;9.02;;
68479;SDS011;55469;48.934;12.050;2022-12-18T13:36:13;20.90;;;8.43;;
68479;SDS011;55469;48.934;12.050;2022-12-18T13:38:42;21.10;;;8.25;;
68479;SDS011;55469;48.934;12.050;2022-12-18T13:43:42;23.48;;;8.68;;
68479;SDS011;55469;48.934;12.050;2022-12-18T13:46:23;21.40;;;8.25;;
68479;SDS011;55469;48.934;12.050;2022-12-18T13:51:39;19.20;;;8.25;;
68479;SDS011;55469;48.934;12.050;2022-12-18T13:54:27;24.27;;;9.02;;
68479;SDS011;55469;48.934;12.050;2022-12-18T13:57:02;20.45;;;9.05;;
68479;SDS011;55469;48.934;12.050;2022-12-18T13:59:38;17.88;;;8.00;;
68479;SDS011;55469;48.934;12.050;2022-12-18T14:02:17;18.20;;;8.20;;
68479;SDS011;55469;48.934;12.050;2022-12-18T14:04:48;19.80;;;8.20;;
68479;SDS011;55469;48.934;12.050;2022-12-18T14:07:22;20.92;;;8.38;;
68479;SDS011;55469;48.934;12.050;2022-12-18T14:09:54;17.70;;;8.40;;
68479;SDS011;55469;48.934;12.050;2022-12-18T14:12:24;20.48;;;8.48;;
68479;SDS011;55469;48.934;12.050;2022-12-18T14:15:22;21.65;;;8.70;;
68479;SDS011;55469;48.934;12.050;2022-12-18T14:17:50;21.52;;;8.95;;
68479;SDS011;55469;48.934;12.050;2022-12-18T14:20:22;19.17;;;8.65;;
68479;SDS011;55469;48.934;12.050;2022-12-18T14:22:50;20.05;;;8.60;;
68479;SDS011;55469;48.934;12.050;2022-12-18T14:25:17;21.45;;;9.10;;
68479;SDS011;55469;48.934;12.050;2022-12-18T14:28:03;23.35;;;9.13;;
68479;SDS011;55469;48.934;12.050;2022-12-18T14:30:43;20.00;;;8.38;;
68479;SDS011;55469;48.934;12.050;2022-12-18T14:33:12;19.70;;;7.97;;
68479;SDS011;55469;48.934;12.050;2022-12-18T14:35:42;22.25;;;8.88;;
68479;SDS011;55469;48.934;12.050;2022-12-18T14:38:33;21.38;;;8.65;;
68479;SDS011;55469;48.934;12.050;2022-12-18T14:41:13;20.60;;;8.43;;
68479;SDS011;55469;48.934;12.050;2022-12-18T14:43:42;20.00;;;8.43;;
68479;SDS011;55469;48.934;12.050;2022-12-18T14:46:32;19.67;;;8.88;;
68479;SDS011;55469;48.934;12.050;2022-12-18T14:49:00;18.38;;;8.25;;
68479;SDS011;55469;48.934;12.050;2022-12-18T14:51:30;22.23;;;8.25;;
68479;SDS011;55469;48.934;12.050;2022-12-18T14:54:05;20.52;;;8.43;;
68479;SDS011;55469;48.934;12.050;2022-12-18T14:56:45;20.95;;;9.13;;
68479;SDS011;55469;48.934;12.050;2022-12-18T14:59:26;19.95;;;8.57;;
68479;SDS011;55469;48.934;12.050;2022-12-18T15:05:04;22.10;;;8.73;;
68479;SDS011;55469;48.934;12.050;2022-12-18T15:07:44;20.40;;;8.85;;
68479;SDS011;55469;48.934;12.050;2022-12-18T15:10:14;20.58;;;8.18;;
68479;SDS011;55469;48.934;12.050;2022-12-18T15:20:40;22.60;;;8.63;;
68479;SDS011;55469;48.934;12.050;2022-12-18T15:25:56;22.25;;;8.80;;
68479;SDS011;55469;48.934;12.050;2022-12-18T15:33:38;19.60;;;8.40;;
68479;SDS011;55469;48.934;12.050;2022-12-18T15:36:12;19.15;;;8.43;;
68479;SDS011;55469;48.934;12.050;2022-12-18T15:38:40;23.90;;;9.23;;
68479;SDS011;55469;48.934;12.050;2022-12-18T15:41:11;17.33;;;8.02;;
68479;SDS011;55469;48.934;12.050;2022-12-18T15:43:40;18.65;;;8.07;;
68479;SDS011;55469;48.934;12.050;2022-12-18T15:46:09;21.55;;;8.98;;
68479;SDS011;55469;48.934;12.050;2022-12-18T15:51:12;21.25;;;8.98;;
68479;SDS011;55469;48.934;12.050;2022-12-18T15:53:41;21.23;;;9.05;;
68479;SDS011;55469;48.934;12.050;2022-12-18T15:56:12;21.17;;;8.43;;
68479;SDS011;55469;48.934;12.050;2022-12-18T15:58:57;19.48;;;8.48;;
68479;SDS011;55469;48.934;12.050;2022-12-18T16:01:25;20.67;;;9.13;;
68479;SDS011;55469;48.934;12.050;2022-12-18T16:03:54;21.20;;;9.65;;
68479;SDS011;55469;48.934;12.050;2022-12-18T16:06:21;20.40;;;8.48;;
68479;SDS011;55469;48.934;12.050;2022-12-18T16:08:48;21.88;;;8.73;;
68479;SDS011;55469;48.934;12.050;2022-12-18T16:11:27;20.75;;;8.70;;
68479;SDS011;55469;48.934;12.050;2022-12-18T16:14:04;23.63;;;9.05;;
68479;SDS011;55469;48.934;12.050;2022-12-18T16:16:31;23.13;;;9.02;;
68479;SDS011;55469;48.934;12.050;2022-12-18T16:18:56;19.55;;;8.73;;
68479;SDS011;55469;48.934;12.050;2022-12-18T16:21:22;22.58;;;9.15;;
68479;SDS011;55469;48.934;12.050;2022-12-18T16:23:48;21.60;;;9.07;;
68479;SDS011;55469;48.934;12.050;2022-12-18T16:26:13;24.58;;;9.63;;
68479;SDS011;55469;48.934;12.050;2022-12-18T16:28:39;22.95;;;8.85;;
68479;SDS011;55469;48.934;12.050;2022-12-18T16:31:05;23.00;;;9.05;;
68479;SDS011;55469;48.934;12.050;2022-12-18T16:33:31;22.15;;;9.50;;
68479;SDS011;55469;48.934;12.050;2022-12-18T16:35:56;22.50;;;9.60;;
68479;SDS011;55469;48.934;12.050;2022-12-18T16:38:22;22.38;;;9.65;;
68479;SDS011;55469;48.934;12.050;2022-12-18T16:40:49;20.92;;;9.25;;
68479;SDS011;55469;48.934;12.050;2022-12-18T16:43:33;20.73;;;8.90;;
68479;SDS011;55469;48.934;12.050;2022-12-18T16:45:59;21.23;;;8.98;;
68479;SDS011;55469;48.934;12.050;2022-12-18T16:48:24;20.45;;;9.02;;
68479;SDS011;55469;48.934;12.050;2022-12-18T16:51:00;23.20;;;8.98;;